createdAt,value
2019-06-07T00:00:33.527Z,72.70
2019-06-07T00:02:43.366Z,72.80
2019-06-07T00:05:13.243Z,73.30
2019-06-07T00:07:42.474Z,73.30
2019-06-07T00:10:30.316Z,72.60
2019-06-07T00:12:42.268Z,73.10
2019-06-07T00:15:15.312Z,73.30
2019-06-07T00:17:41.567Z,73.00
2019-06-07T00:20:13.782Z,72.80
2019-06-07T00:22:41.004Z,72.20
2019-06-07T00:25:13.341Z,72.10
2019-06-07T00:27:40.798Z,72.80
2019-06-07T00:30:32.526Z,72.50
2019-06-07T00:32:40.822Z,72.20
2019-06-07T00:35:11.947Z,72.00
2019-06-07T00:37:41.329Z,72.00
2019-06-07T00:40:16.447Z,72.00
2019-06-07T00:42:40.836Z,72.00
2019-06-07T00:45:11.242Z,72.00
2019-06-07T00:47:40.322Z,72.00
2019-06-07T00:50:09.425Z,72.10
2019-06-07T00:55:15.263Z,72.40
2019-06-07T00:57:44.557Z,72.50
2019-06-07T01:00:18.300Z,72.70
2019-06-07T01:02:48.012Z,73.30
2019-06-07T01:05:20.253Z,73.80
2019-06-07T01:07:47.354Z,73.90
2019-06-07T01:10:34.581Z,73.90
2019-06-07T01:12:47.726Z,74.10
2019-06-07T01:15:22.213Z,74.20
2019-06-07T01:18:33.148Z,74.20
2019-06-07T01:20:21.265Z,73.90
2019-06-07T01:22:49.424Z,73.70
2019-06-07T01:25:22.204Z,74.00
2019-06-07T01:27:48.628Z,74.20
2019-06-07T01:30:18.776Z,74.30
2019-06-07T01:32:48.295Z,74.60
2019-06-07T01:35:20.195Z,74.60
2019-06-07T01:37:48.940Z,74.70
2019-06-07T01:40:20.791Z,75.00
2019-06-07T01:42:49.683Z,75.20
2019-06-07T01:45:19.510Z,75.00
2019-06-07T01:47:48.627Z,75.40
2019-06-07T01:50:21.133Z,75.50
2019-06-07T01:52:47.831Z,75.70
2019-06-07T01:55:23.082Z,75.70
2019-06-07T01:57:49.235Z,75.40
2019-06-07T02:00:21.671Z,75.20
2019-06-07T02:02:48.888Z,75.90
2019-06-07T02:05:20.669Z,75.40
2019-06-07T02:07:48.510Z,75.30
2019-06-07T02:10:19.459Z,75.90
2019-06-07T02:12:47.906Z,76.00
2019-06-07T02:15:17.182Z,75.80
2019-06-07T02:17:45.823Z,76.60
2019-06-07T02:20:15.737Z,76.50
2019-06-07T02:22:44.431Z,75.90
2019-06-07T02:25:43.946Z,76.60
2019-06-07T02:27:43.962Z,76.10
2019-06-07T02:32:43.264Z,75.50
2019-06-07T02:35:11.964Z,75.80
2019-06-07T02:37:40.623Z,87.40
2019-06-07T02:40:09.898Z,85.20
2019-06-07T02:42:42.592Z,82.10
2019-06-07T02:45:11.174Z,78.40
2019-06-07T02:47:40.705Z,76.50
2019-06-07T02:50:12.905Z,76.30
2019-06-07T02:52:42.172Z,75.90
2019-06-07T02:55:12.057Z,76.70
2019-06-07T02:57:42.089Z,75.70
2019-06-07T03:00:40.594Z,75.50
2019-06-07T03:02:43.441Z,74.60
2019-06-07T03:05:12.861Z,73.40
2019-06-07T03:07:45.305Z,72.50
2019-06-07T03:10:14.778Z,73.40
2019-06-07T03:12:45.450Z,73.90
2019-06-07T03:15:31.956Z,73.60
2019-06-07T03:17:52.281Z,73.60
2019-06-07T03:20:31.198Z,72.90
2019-06-07T03:23:01.416Z,72.30
2019-06-07T03:25:37.076Z,72.00
2019-06-07T03:28:07.162Z,69.70
2019-06-07T03:30:48.172Z,67.30
2019-06-07T03:33:06.232Z,67.40
2019-06-07T03:35:37.341Z,67.40
2019-06-07T03:38:05.248Z,71.80
2019-06-07T03:40:36.898Z,74.40
2019-06-07T03:43:04.245Z,72.30
2019-06-07T03:45:35.169Z,69.10
2019-06-07T03:48:03.306Z,66.90
2019-06-07T03:50:34.290Z,67.00
2019-06-07T03:53:02.222Z,66.60
2019-06-07T03:55:34.861Z,67.30
2019-06-07T03:58:30.801Z,67.40
2019-06-07T04:00:34.149Z,67.20
2019-06-07T04:03:01.890Z,67.30
2019-06-07T04:05:32.889Z,67.40
2019-06-07T04:08:00.832Z,67.40
2019-06-07T04:10:48.289Z,67.30
2019-06-07T04:12:59.785Z,67.50
2019-06-07T04:15:28.449Z,67.40
2019-06-07T04:18:01.906Z,67.50
2019-06-07T04:20:29.350Z,67.50
2019-06-07T04:22:57.807Z,67.30
2019-06-07T04:25:31.704Z,67.20
2019-06-07T04:27:59.663Z,67.40
2019-06-07T04:30:44.698Z,67.40
2019-06-07T04:33:14.890Z,67.00
2019-06-07T04:35:45.237Z,67.30
2019-06-07T04:38:14.495Z,67.30
2019-06-07T04:40:43.936Z,67.30
2019-06-07T04:43:13.527Z,67.10
2019-06-07T04:45:50.760Z,66.70
2019-06-07T04:48:12.692Z,66.50
2019-06-07T04:50:44.120Z,66.40
2019-06-07T04:53:12.000Z,66.30
2019-06-07T04:55:41.824Z,65.90
2019-06-07T04:58:10.811Z,65.70
2019-06-07T05:00:52.494Z,65.50
2019-06-07T05:03:09.743Z,65.50
2019-06-07T05:05:41.906Z,64.60
2019-06-07T05:08:27.116Z,64.30
2019-06-07T05:10:43.093Z,64.60
2019-06-07T05:13:09.367Z,64.40
2019-06-07T05:15:40.284Z,64.00
2019-06-07T05:18:08.536Z,63.10
2019-06-07T05:20:38.550Z,64.40
2019-06-07T05:23:07.641Z,63.10
2019-06-07T05:25:38.459Z,61.80
2019-06-07T05:28:06.789Z,64.30
2019-06-07T05:33:09.854Z,63.20
2019-06-07T05:35:41.762Z,63.20
2019-06-07T05:38:09.523Z,62.40
2019-06-07T05:40:48.345Z,61.20
2019-06-07T05:43:25.321Z,61.00
2019-06-07T05:45:53.949Z,58.90
2019-06-07T05:48:23.023Z,59.30
2019-06-07T05:50:56.971Z,59.90
2019-06-07T05:53:22.033Z,59.90
2019-06-07T05:55:50.662Z,58.30
2019-06-07T05:58:19.467Z,60.40
2019-06-07T06:00:48.078Z,59.10
2019-06-07T06:03:16.790Z,59.00
2019-06-07T06:05:53.876Z,59.30
2019-06-07T06:08:15.712Z,56.90
2019-06-07T06:10:48.000Z,56.60
2019-06-07T06:13:14.815Z,55.50
2019-06-07T06:15:55.935Z,55.00
2019-06-07T06:18:13.854Z,54.70
2019-06-07T06:21:07.933Z,54.90
2019-06-07T06:23:12.892Z,54.90
2019-06-07T06:25:48.309Z,55.80
2019-06-07T06:28:13.009Z,56.30
2019-06-07T06:30:45.561Z,55.60
2019-06-07T06:33:30.746Z,54.70
2019-06-07T06:35:45.199Z,55.20
2019-06-07T06:38:13.503Z,54.50
2019-06-07T06:40:45.117Z,54.70
2019-06-07T06:43:12.434Z,55.10
2019-06-07T06:45:42.937Z,53.20
2019-06-07T06:48:11.402Z,52.90
2019-06-07T06:50:41.099Z,52.90
2019-06-07T06:53:09.890Z,53.70
2019-06-07T06:55:39.111Z,53.20
2019-06-07T06:58:07.927Z,52.90
2019-06-07T07:00:46.185Z,52.50
2019-06-07T07:03:47.423Z,53.50
2019-06-07T07:05:40.759Z,52.00
2019-06-07T07:08:09.776Z,52.20
2019-06-07T07:10:41.199Z,51.70
2019-06-07T07:13:09.970Z,51.90
2019-06-07T07:15:38.614Z,50.80
2019-06-07T07:18:08.816Z,51.20
2019-06-07T07:20:37.860Z,50.90
2019-06-07T07:23:06.657Z,51.10
2019-06-07T07:25:35.295Z,50.10
2019-06-07T07:28:04.220Z,51.20
2019-06-07T07:30:54.870Z,50.70
2019-06-07T07:33:21.197Z,49.80
2019-06-07T07:36:10.983Z,53.80
2019-06-07T07:38:20.555Z,50.50
2019-06-07T07:41:01.880Z,50.80
2019-06-07T07:43:19.526Z,49.40
2019-06-07T07:45:53.316Z,49.00
2019-06-07T07:48:18.892Z,48.80
2019-06-07T07:50:49.700Z,48.90
2019-06-07T07:53:18.171Z,47.90
2019-06-07T07:55:51.549Z,48.90
2019-06-07T07:58:17.199Z,50.80
2019-06-07T08:00:52.876Z,49.30
2019-06-07T08:03:16.139Z,49.30
2019-06-07T08:05:45.704Z,49.10
2019-06-07T08:08:15.071Z,47.30
2019-06-07T08:10:43.691Z,46.30
2019-06-07T08:13:24.559Z,45.60
2019-06-07T08:15:42.836Z,45.90
2019-06-07T08:18:11.513Z,47.90
2019-06-07T08:20:40.146Z,47.90
2019-06-07T08:23:08.765Z,47.70
2019-06-07T08:25:37.513Z,46.80
2019-06-07T08:28:06.200Z,45.90
2019-06-07T08:30:49.914Z,47.00
2019-06-07T08:33:24.662Z,46.90
2019-06-07T08:38:25.307Z,45.80
2019-06-07T08:40:36.499Z,48.20
2019-06-07T08:43:18.265Z,46.30
2019-06-07T08:45:35.937Z,46.10
2019-06-07T08:48:23.293Z,48.90
2019-06-07T08:50:35.319Z,47.00
2019-06-07T08:53:11.879Z,45.00
2019-06-07T08:55:34.534Z,45.80
2019-06-07T08:58:08.224Z,46.10
2019-06-07T09:00:49.039Z,45.60
2019-06-07T09:03:07.177Z,45.00
2019-06-07T09:05:34.470Z,44.60
2019-06-07T09:08:23.484Z,45.00
2019-06-07T09:10:33.601Z,45.20
2019-06-07T09:13:07.983Z,45.70
2019-06-07T09:15:32.543Z,46.50
2019-06-07T09:20:43.889Z,46.70
2019-06-07T09:23:17.362Z,46.00
2019-06-07T09:25:56.628Z,45.10
2019-06-07T09:28:19.454Z,44.80
2019-06-07T09:30:45.742Z,46.50
2019-06-07T09:33:14.654Z,45.60
2019-06-07T09:35:43.500Z,43.80
2019-06-07T09:38:24.166Z,43.40
2019-06-07T09:40:42.479Z,45.00
2019-06-07T09:45:41.724Z,46.10
2019-06-07T09:48:16.247Z,45.30
2019-06-07T09:50:40.687Z,45.30
2019-06-07T09:53:21.066Z,44.60
2019-06-07T09:55:39.883Z,45.00
2019-06-07T09:58:48.655Z,45.00
2019-06-07T10:00:42.098Z,44.80
2019-06-07T10:03:20.742Z,44.30
2019-06-07T10:05:39.469Z,44.60
2019-06-07T10:08:25.632Z,45.90
2019-06-07T10:10:38.407Z,45.60
2019-06-07T10:13:08.454Z,43.70
2019-06-07T10:15:37.370Z,43.30
2019-06-07T10:18:07.074Z,43.20
2019-06-07T10:20:35.948Z,45.60
2019-06-07T10:23:05.738Z,42.60
2019-06-07T10:25:34.603Z,42.90
2019-06-07T10:28:04.176Z,41.20
2019-06-07T10:30:32.809Z,41.10
2019-06-07T10:33:02.210Z,42.00
2019-06-07T10:35:30.992Z,42.60
2019-06-07T10:38:00.356Z,44.20
2019-06-07T10:40:28.987Z,43.70
2019-06-07T10:42:57.759Z,42.70
2019-06-07T10:45:26.455Z,42.80
2019-06-07T10:47:55.123Z,43.20
2019-06-07T10:50:23.887Z,42.90
2019-06-07T10:52:52.559Z,41.60
2019-06-07T10:55:21.210Z,42.00
2019-06-07T10:57:49.868Z,43.10
2019-06-07T11:00:18.945Z,41.70
2019-06-07T11:02:47.617Z,40.30
2019-06-07T11:05:17.749Z,40.70
2019-06-07T11:07:46.390Z,40.60
2019-06-07T11:10:18.985Z,39.90
2019-06-07T11:12:45.615Z,39.40
2019-06-07T11:15:15.006Z,40.40
2019-06-07T11:17:43.755Z,41.50
2019-06-07T11:20:14.755Z,41.90
2019-06-07T11:22:43.436Z,40.90
2019-06-07T11:25:14.573Z,40.90
2019-06-07T11:27:43.514Z,41.20
2019-06-07T11:30:12.601Z,40.90
2019-06-07T11:32:41.440Z,41.30
2019-06-07T11:35:13.692Z,39.90
2019-06-07T11:37:42.362Z,40.80
2019-06-07T11:40:35.019Z,42.30
2019-06-07T11:42:42.920Z,40.80
2019-06-07T11:45:12.937Z,40.50
2019-06-07T11:47:42.092Z,39.90
2019-06-07T11:50:13.788Z,40.60
2019-06-07T11:52:45.432Z,40.80
2019-06-07T11:55:13.592Z,39.70
2019-06-07T11:57:43.748Z,40.30
2019-06-07T12:00:16.312Z,39.50
2019-06-07T12:02:45.768Z,40.00
2019-06-07T12:05:18.129Z,39.90
2019-06-07T12:07:45.254Z,38.40
2019-06-07T12:10:20.470Z,40.10
2019-06-07T12:12:46.283Z,39.60
2019-06-07T12:15:17.354Z,39.10
2019-06-07T12:17:46.198Z,38.90
2019-06-07T12:20:17.425Z,40.00
2019-06-07T12:22:46.307Z,39.60
2019-06-07T12:25:21.541Z,40.30
2019-06-07T12:27:47.725Z,38.50
2019-06-07T12:30:23.718Z,38.10
2019-06-07T12:32:47.037Z,37.90
2019-06-07T12:35:17.855Z,38.60
2019-06-07T12:37:46.589Z,38.80
2019-06-07T12:40:26.430Z,38.80
2019-06-07T12:42:46.450Z,39.50
2019-06-07T12:45:36.699Z,38.20
2019-06-07T12:47:45.493Z,39.60
2019-06-07T12:50:15.356Z,39.00
2019-06-07T12:52:44.119Z,39.60
2019-06-07T12:55:13.965Z,39.30
2019-06-07T12:57:42.725Z,38.20
2019-06-07T13:00:14.044Z,38.40
2019-06-07T13:02:42.922Z,38.70
2019-06-07T13:05:12.163Z,38.50
2019-06-07T13:07:40.808Z,38.50
2019-06-07T13:10:10.519Z,39.60
2019-06-07T13:12:39.381Z,38.50
2019-06-07T13:15:08.477Z,38.80
2019-06-07T13:17:37.579Z,38.90
2019-06-07T13:20:08.055Z,39.60
2019-06-07T13:22:36.812Z,39.10
2019-06-07T13:25:07.693Z,40.30
2019-06-07T13:27:36.524Z,39.80
2019-06-07T13:30:11.004Z,39.10
2019-06-07T13:32:39.891Z,39.80
2019-06-07T13:35:09.565Z,39.40
2019-06-07T13:37:38.300Z,39.60
2019-06-07T13:40:07.449Z,41.40
2019-06-07T13:42:36.149Z,41.00
2019-06-07T13:45:09.260Z,40.90
2019-06-07T13:47:37.107Z,41.50
2019-06-07T13:50:07.121Z,42.30
2019-06-07T13:52:35.872Z,42.90
2019-06-07T13:55:06.653Z,42.70
2019-06-07T13:57:35.484Z,43.90
2019-06-07T14:00:10.927Z,43.90
2019-06-07T14:02:37.612Z,43.60
2019-06-07T14:05:07.811Z,44.50
2019-06-07T14:07:36.476Z,44.60
2019-06-07T14:10:10.994Z,43.50
2019-06-07T14:12:37.973Z,43.10
2019-06-07T14:15:07.810Z,42.10
2019-06-07T14:17:36.474Z,42.90
2019-06-07T14:20:08.663Z,43.10
2019-06-07T14:22:37.973Z,43.20
2019-06-07T14:25:08.875Z,43.50
2019-06-07T14:27:37.612Z,43.90
2019-06-07T14:30:08.533Z,44.40
2019-06-07T14:32:37.265Z,43.60
2019-06-07T14:35:07.809Z,44.50
2019-06-07T14:37:37.169Z,45.00
2019-06-07T14:40:07.176Z,45.10
2019-06-07T14:42:35.891Z,43.40
2019-06-07T14:45:07.237Z,43.50
2019-06-07T14:47:35.867Z,43.90
2019-06-07T14:50:06.430Z,44.00
2019-06-07T14:52:35.234Z,44.20
2019-06-07T14:55:07.623Z,43.40
2019-06-07T14:57:37.409Z,44.10
2019-06-07T15:00:12.272Z,44.00
2019-06-07T15:02:41.077Z,44.80
2019-06-07T15:05:10.499Z,44.70
2019-06-07T15:07:40.422Z,44.50
2019-06-07T15:10:10.907Z,44.30
2019-06-07T15:12:40.092Z,44.70
2019-06-07T15:15:09.305Z,44.20
2019-06-07T15:17:39.244Z,44.30
2019-06-07T15:20:08.663Z,44.90
2019-06-07T15:22:38.822Z,45.10
2019-06-07T15:25:08.496Z,44.60
2019-06-07T15:27:37.723Z,44.80
2019-06-07T15:30:10.402Z,44.90
2019-06-07T15:32:39.452Z,45.30
2019-06-07T15:35:09.234Z,45.40
2019-06-07T15:37:39.137Z,46.00
2019-06-07T15:40:09.078Z,45.10
2019-06-07T15:42:51.277Z,45.90
2019-06-07T15:45:09.507Z,45.90
2019-06-07T15:47:38.444Z,45.60
2019-06-07T15:50:08.090Z,46.00
2019-06-07T15:52:38.339Z,46.50
2019-06-07T15:55:09.651Z,45.80
2019-06-07T15:57:39.613Z,46.50
2019-06-07T16:00:13.375Z,46.60
2019-06-07T16:02:42.040Z,46.00
2019-06-07T16:05:11.158Z,46.10
2019-06-07T16:07:40.512Z,46.80
2019-06-07T16:10:10.372Z,46.50
2019-06-07T16:12:39.056Z,46.80
2019-06-07T16:15:09.926Z,45.50
2019-06-07T16:17:39.233Z,46.40
2019-06-07T16:20:08.704Z,47.00
2019-06-07T16:22:37.709Z,46.20
2019-06-07T16:25:07.615Z,46.80
2019-06-07T16:27:36.898Z,45.60
2019-06-07T16:30:09.410Z,45.60
2019-06-07T16:32:39.410Z,45.50
2019-06-07T16:35:10.064Z,46.00
2019-06-07T16:37:40.694Z,46.20
2019-06-07T16:40:11.025Z,47.00
2019-06-07T16:42:40.586Z,47.20
2019-06-07T16:45:11.347Z,47.40
2019-06-07T16:47:42.356Z,47.90
2019-06-07T16:50:12.337Z,47.30
2019-06-07T16:52:41.930Z,47.00
2019-06-07T16:55:11.303Z,47.00
2019-06-07T16:57:40.980Z,47.40
2019-06-07T17:00:12.187Z,47.40
2019-06-07T17:02:41.981Z,47.70
2019-06-07T17:05:11.898Z,48.40
2019-06-07T17:07:42.273Z,48.60
2019-06-07T17:10:12.694Z,48.90
2019-06-07T17:12:42.823Z,48.80
2019-06-07T17:15:13.825Z,49.10
2019-06-07T17:17:43.004Z,49.00
2019-06-07T17:20:12.154Z,49.40
2019-06-07T17:22:41.992Z,49.90
2019-06-07T17:25:13.091Z,50.30
2019-06-07T17:27:42.103Z,50.20
2019-06-07T17:30:12.041Z,50.30
2019-06-07T17:32:53.163Z,50.50
2019-06-07T17:35:11.352Z,50.60
2019-06-07T17:37:41.646Z,51.00
2019-06-07T17:40:11.090Z,51.40
2019-06-07T17:42:40.711Z,51.20
2019-06-07T17:45:10.511Z,51.30
2019-06-07T17:47:39.180Z,51.20
2019-06-07T17:50:08.665Z,50.90
2019-06-07T17:52:37.400Z,51.60
2019-06-07T17:55:07.238Z,51.00
2019-06-07T17:57:35.880Z,51.20
2019-06-07T18:00:27.841Z,51.50
2019-06-07T18:02:38.321Z,51.50
2019-06-07T18:05:08.236Z,51.60
2019-06-07T18:07:36.980Z,51.80
2019-06-07T18:10:10.461Z,51.90
2019-06-07T18:12:39.102Z,52.10
2019-06-07T18:15:10.643Z,52.50
2019-06-07T18:17:39.464Z,52.80
2019-06-07T18:20:09.554Z,52.80
2019-06-07T18:22:38.204Z,53.10
2019-06-07T18:25:07.708Z,53.30
2019-06-07T18:27:36.401Z,53.30
2019-06-07T18:30:11.515Z,53.40
2019-06-07T18:32:38.759Z,53.60
2019-06-07T18:35:07.719Z,53.70
2019-06-07T18:37:36.367Z,53.80
2019-06-07T18:40:06.843Z,54.20
2019-06-07T18:42:35.613Z,54.30
2019-06-07T18:45:06.231Z,54.40
2019-06-07T18:47:34.899Z,54.20
2019-06-07T18:50:04.413Z,54.60
2019-06-07T18:52:34.833Z,54.40
2019-06-07T18:55:04.029Z,54.80
2019-06-07T18:57:32.759Z,55.10
2019-06-07T19:00:01.395Z,55.60
2019-06-07T19:02:30.055Z,55.40
2019-06-07T19:04:58.706Z,55.80
2019-06-07T19:07:27.377Z,55.70
2019-06-07T19:09:56.913Z,55.60
2019-06-07T19:12:25.741Z,55.80
2019-06-07T19:14:55.580Z,56.00
2019-06-07T19:17:24.271Z,55.80
2019-06-07T19:19:54.150Z,55.80
2019-06-07T19:22:22.917Z,56.00
2019-06-07T19:24:52.139Z,55.80
2019-06-07T19:27:20.815Z,55.80
2019-06-07T19:29:50.790Z,55.80
2019-06-07T19:32:19.490Z,55.90
2019-06-07T19:34:48.160Z,56.20
2019-06-07T19:37:16.851Z,56.20
2019-06-07T19:39:45.629Z,56.90
2019-06-07T19:42:14.329Z,57.00
2019-06-07T19:44:53.112Z,57.00
2019-06-07T19:47:13.323Z,57.60
2019-06-07T19:49:42.019Z,57.90
2019-06-07T19:52:10.679Z,57.70
2019-06-07T19:54:39.457Z,58.10
2019-06-07T19:57:08.319Z,58.10
2019-06-07T19:59:37.060Z,58.20
2019-06-07T20:02:05.822Z,58.40
2019-06-07T20:04:34.491Z,58.50
2019-06-07T20:07:03.895Z,58.50
2019-06-07T20:09:33.559Z,58.30
2019-06-07T20:12:02.896Z,58.60
2019-06-07T20:14:31.715Z,58.40
2019-06-07T20:17:01.361Z,58.20
2019-06-07T20:19:30.134Z,58.40
2019-06-07T20:21:58.882Z,58.40
2019-06-07T20:24:27.759Z,58.50
2019-06-07T20:26:56.509Z,58.30
2019-06-07T20:29:26.460Z,58.70
2019-06-07T20:31:56.230Z,59.30
2019-06-07T20:34:25.019Z,60.20
2019-06-07T20:36:53.775Z,62.50
2019-06-07T20:39:22.399Z,65.40
2019-06-07T20:41:51.116Z,69.30
2019-06-07T20:44:19.806Z,73.30
2019-06-07T20:46:48.414Z,77.00
2019-06-07T20:49:17.071Z,76.60
2019-06-07T20:51:45.731Z,77.10
2019-06-07T20:54:14.397Z,77.20
2019-06-07T20:56:43.012Z,78.70
2019-06-07T20:59:11.667Z,79.80
2019-06-07T21:01:42.748Z,80.80
2019-06-07T21:04:10.753Z,80.50
2019-06-07T21:06:39.388Z,79.40
2019-06-07T21:09:09.690Z,78.90
2019-06-07T21:11:38.445Z,79.10
2019-06-07T21:14:08.216Z,78.00
2019-06-07T21:16:36.984Z,78.60
2019-06-07T21:19:06.280Z,79.10
2019-06-07T21:21:35.075Z,78.50
2019-06-07T21:24:04.630Z,77.20
2019-06-07T21:26:33.359Z,76.50
2019-06-07T21:29:03.370Z,76.70
2019-06-07T21:31:32.124Z,75.60
2019-06-07T21:34:01.367Z,75.90
2019-06-07T21:36:30.240Z,76.20
2019-06-07T21:38:58.875Z,75.70
2019-06-07T21:41:27.539Z,75.50
2019-06-07T21:43:56.210Z,77.10
2019-06-07T21:46:24.872Z,76.90
2019-06-07T21:48:53.501Z,77.50
2019-06-07T21:51:22.171Z,76.60
2019-06-07T21:53:50.827Z,75.80
2019-06-07T21:56:19.489Z,74.20
2019-06-07T21:58:48.115Z,74.30
2019-06-07T22:01:19.702Z,74.70
2019-06-07T22:03:48.539Z,74.70
2019-06-07T22:06:17.425Z,73.60
2019-06-07T22:08:46.117Z,74.00
2019-06-07T22:11:14.813Z,75.20
2019-06-07T22:13:43.507Z,76.60
2019-06-07T22:16:26.762Z,77.20
2019-06-07T22:18:43.779Z,77.70
2019-06-07T22:21:14.801Z,77.70
2019-06-07T22:23:44.805Z,78.20
2019-06-07T22:26:15.465Z,77.90
2019-06-07T22:28:45.479Z,77.60
2019-06-07T22:31:19.159Z,77.20
2019-06-07T22:33:49.210Z,77.90
2019-06-07T22:36:19.458Z,78.10
2019-06-07T22:38:48.531Z,77.60
2019-06-07T22:41:17.669Z,77.60
2019-06-07T22:43:47.963Z,76.50
2019-06-07T22:46:17.373Z,76.00
2019-06-07T22:48:46.761Z,74.80
2019-06-07T22:51:16.461Z,74.60
2019-06-07T22:53:45.939Z,74.40
2019-06-07T22:56:18.150Z,74.50
2019-06-07T22:58:47.102Z,75.20
2019-06-07T23:01:17.078Z,75.60
2019-06-07T23:03:45.853Z,77.10
2019-06-07T23:06:14.950Z,77.70
2019-06-07T23:08:44.052Z,77.70
2019-06-07T23:11:13.452Z,78.30
2019-06-07T23:13:42.418Z,79.00
2019-06-07T23:16:11.722Z,79.50
2019-06-07T23:18:41.014Z,79.60
2019-06-07T23:21:11.670Z,80.60
2019-06-07T23:23:40.699Z,80.30
2019-06-07T23:26:12.183Z,80.40
2019-06-07T23:28:41.032Z,79.70
2019-06-07T23:31:10.385Z,79.20
2019-06-07T23:33:39.041Z,78.40
2019-06-07T23:36:07.710Z,79.30
2019-06-07T23:38:36.336Z,79.50
2019-06-07T23:41:05.037Z,79.80
2019-06-07T23:43:33.771Z,79.50
2019-06-07T23:46:02.439Z,82.20
2019-06-07T23:48:31.202Z,81.20
2019-06-07T23:50:59.876Z,79.70
2019-06-07T23:53:28.564Z,78.80
2019-06-07T23:55:57.301Z,78.30
2019-06-07T23:58:25.934Z,78.00
